createdAt,value
2022-12-20T00:00:31.811Z,1007.3
2022-12-20T00:01:35.669Z,1007.3
2022-12-20T00:02:40.035Z,1007.3
2022-12-20T00:03:43.752Z,1007.3
2022-12-20T00:04:47.209Z,1007.3
2022-12-20T00:05:50.667Z,1007.3
2022-12-20T00:06:54.707Z,1007.3
2022-12-20T00:07:58.225Z,1007.4
2022-12-20T00:09:02.006Z,1007.4
2022-12-20T00:10:05.708Z,1007.4
2022-12-20T00:11:08.895Z,1007.4
2022-12-20T00:12:12.268Z,1007.4
2022-12-20T00:13:15.787Z,1007.3
2022-12-20T00:14:19.058Z,1007.4
2022-12-20T00:15:22.825Z,1007.4
2022-12-20T00:16:26.027Z,1007.4
2022-12-20T00:17:29.242Z,1007.4
2022-12-20T00:18:32.492Z,1007.4
2022-12-20T00:19:35.642Z,1007.3
2022-12-20T00:20:38.476Z,1007.4
2022-12-20T00:21:40.691Z,1007.3
2022-12-20T00:22:43.803Z,1007.4
2022-12-20T00:23:47.396Z,1007.3
2022-12-20T00:24:50.507Z,1007.3
2022-12-20T00:25:53.332Z,1007.3
2022-12-20T00:26:56.181Z,1007.4
2022-12-20T00:27:59.175Z,1007.3
2022-12-20T00:29:02.651Z,1007.3
2022-12-20T00:30:06.463Z,1007.3
2022-12-20T00:31:10.219Z,1007.3
2022-12-20T00:32:13.141Z,1007.3
2022-12-20T00:33:16.900Z,1007.3
2022-12-20T00:34:20.398Z,1007.3
2022-12-20T00:35:23.903Z,1007.3
2022-12-20T00:36:27.461Z,1007.2
2022-12-20T00:37:30.826Z,1007.1
2022-12-20T00:38:34.420Z,1007.1
2022-12-20T00:39:37.603Z,1007.1
2022-12-20T00:40:40.474Z,1007.1
2022-12-20T00:43:02.465Z,1007
2022-12-20T00:44:06.550Z,1006.9
2022-12-20T00:45:10.283Z,1006.9
2022-12-20T00:46:13.324Z,1006.9
2022-12-20T00:47:16.347Z,1006.9
2022-12-20T00:48:19.267Z,1006.9
2022-12-20T00:49:22.630Z,1006.9
2022-12-20T00:50:41.047Z,1006.9
2022-12-20T00:51:44.138Z,1006.9
2022-12-20T00:52:47.643Z,1007
2022-12-20T00:53:50.683Z,1007
2022-12-20T00:54:54.872Z,1007
2022-12-20T00:55:58.957Z,1007.1
2022-12-20T00:57:01.493Z,1007
2022-12-20T00:58:04.960Z,1007
2022-12-20T00:59:08.735Z,1007
2022-12-20T01:00:11.529Z,1007
2022-12-20T01:01:14.756Z,1007
2022-12-20T01:02:18.299Z,1006.9
2022-12-20T01:03:23.131Z,1007
2022-12-20T01:04:27.569Z,1007
2022-12-20T01:05:30.280Z,1006.9
2022-12-20T01:06:33.305Z,1006.9
2022-12-20T01:07:35.946Z,1006.9
2022-12-20T01:08:39.570Z,1007
2022-12-20T01:09:42.101Z,1006.9
2022-12-20T01:10:45.852Z,1007
2022-12-20T01:11:49.471Z,1007
2022-12-20T01:12:51.629Z,1007
2022-12-20T01:13:54.484Z,1007.1
2022-12-20T01:14:58.293Z,1007
2022-12-20T01:16:01.277Z,1007
2022-12-20T01:17:05.035Z,1007
2022-12-20T01:18:08.137Z,1007
2022-12-20T01:19:12.188Z,1007
2022-12-20T01:20:15.691Z,1007
2022-12-20T01:21:18.722Z,1007
2022-12-20T01:22:21.967Z,1007
2022-12-20T01:23:25.050Z,1007
2022-12-20T01:24:28.457Z,1007
2022-12-20T01:25:31.270Z,1007
2022-12-20T01:26:34.679Z,1007
2022-12-20T01:27:37.598Z,1007
2022-12-20T01:28:41.096Z,1006.9
2022-12-20T01:29:44.187Z,1007
2022-12-20T01:30:48.223Z,1007
2022-12-20T01:31:51.397Z,1007
2022-12-20T01:32:55.545Z,1007
2022-12-20T01:33:58.661Z,1007
2022-12-20T01:35:01.554Z,1006.9
2022-12-20T01:36:04.540Z,1006.9
2022-12-20T01:37:08.021Z,1006.9
2022-12-20T01:38:11.689Z,1006.9
2022-12-20T01:39:14.622Z,1006.9
2022-12-20T01:40:18.384Z,1006.9
2022-12-20T01:41:21.424Z,1006.8
2022-12-20T01:42:25.567Z,1006.9
2022-12-20T01:43:28.373Z,1006.9
2022-12-20T01:44:30.889Z,1006.9
2022-12-20T01:45:33.737Z,1006.9
2022-12-20T01:46:37.392Z,1006.9
2022-12-20T01:47:40.112Z,1006.9
2022-12-20T01:48:43.445Z,1006.9
2022-12-20T01:49:46.244Z,1006.8
2022-12-20T01:50:49.355Z,1006.8
2022-12-20T01:51:52.740Z,1006.8
2022-12-20T01:52:56.502Z,1006.8
2022-12-20T01:54:00.565Z,1006.8
2022-12-20T01:55:03.311Z,1006.8
2022-12-20T01:56:06.703Z,1006.8
2022-12-20T01:57:10.178Z,1006.7
2022-12-20T01:58:13.707Z,1006.8
2022-12-20T01:59:17.085Z,1006.8
2022-12-20T02:00:20.755Z,1006.8
2022-12-20T02:01:24.872Z,1006.8
2022-12-20T02:02:30.052Z,1006.8
2022-12-20T02:03:33.878Z,1006.8
2022-12-20T02:04:36.778Z,1006.8
2022-12-20T02:05:39.928Z,1006.8
2022-12-20T02:06:42.775Z,1006.8
2022-12-20T02:07:45.875Z,1006.7
2022-12-20T02:08:49.298Z,1006.7
2022-12-20T02:09:51.837Z,1006.7
2022-12-20T02:10:55.475Z,1006.7
2022-12-20T02:11:58.323Z,1006.8
2022-12-20T02:13:01.436Z,1006.8
2022-12-20T02:14:05.208Z,1006.7
2022-12-20T02:15:08.639Z,1006.7
2022-12-20T02:16:12.144Z,1006.7
2022-12-20T02:17:14.816Z,1006.7
2022-12-20T02:18:18.577Z,1006.8
2022-12-20T02:19:22.280Z,1006.8
2022-12-20T02:20:25.261Z,1006.8
2022-12-20T02:21:27.772Z,1006.8
2022-12-20T02:22:31.096Z,1006.8
2022-12-20T02:23:34.417Z,1006.7
2022-12-20T02:24:37.869Z,1006.8
2022-12-20T02:25:41.177Z,1006.8
2022-12-20T02:26:43.486Z,1006.7
2022-12-20T02:27:47.175Z,1006.7
2022-12-20T02:28:49.721Z,1006.7
2022-12-20T02:29:53.500Z,1006.7
2022-12-20T02:30:56.899Z,1006.8
2022-12-20T02:32:00.780Z,1006.7
2022-12-20T02:33:03.888Z,1006.7
2022-12-20T02:34:06.521Z,1006.7
2022-12-20T02:35:08.730Z,1006.7
2022-12-20T02:36:11.454Z,1006.7
2022-12-20T02:37:14.531Z,1006.7
2022-12-20T02:38:17.293Z,1006.7
2022-12-20T02:39:20.932Z,1006.6
2022-12-20T02:40:24.295Z,1006.6
2022-12-20T02:41:27.388Z,1006.7
2022-12-20T02:42:31.420Z,1006.6
2022-12-20T02:43:33.902Z,1006.6
2022-12-20T02:44:36.365Z,1006.6
2022-12-20T02:45:39.971Z,1006.6
2022-12-20T02:46:42.793Z,1006.6
2022-12-20T02:47:45.890Z,1006.6
2022-12-20T02:48:49.360Z,1006.7
2022-12-20T02:49:53.055Z,1006.7
2022-12-20T02:50:55.553Z,1006.7
2022-12-20T02:51:58.665Z,1006.7
2022-12-20T02:53:01.670Z,1006.7
2022-12-20T02:54:05.124Z,1006.7
2022-12-20T02:55:07.907Z,1006.8
2022-12-20T02:56:11.283Z,1006.8
2022-12-20T02:57:14.129Z,1006.8
2022-12-20T02:58:16.860Z,1006.7
2022-12-20T02:59:19.751Z,1006.8
2022-12-20T03:00:22.783Z,1006.8
2022-12-20T03:01:26.532Z,1006.7
2022-12-20T03:02:30.711Z,1006.7
2022-12-20T03:03:34.229Z,1006.7
2022-12-20T03:04:38.082Z,1006.7
2022-12-20T03:05:41.326Z,1006.7
2022-12-20T03:06:44.458Z,1006.6
2022-12-20T03:07:47.188Z,1006.5
2022-12-20T03:08:50.087Z,1006.5
2022-12-20T03:09:53.131Z,1006.5
2022-12-20T03:10:56.124Z,1006.5
2022-12-20T03:11:58.943Z,1006.5
2022-12-20T03:13:02.407Z,1006.6
2022-12-20T03:14:05.461Z,1006.6
2022-12-20T03:15:08.274Z,1006.5
2022-12-20T03:16:11.029Z,1006.5
2022-12-20T03:17:14.662Z,1006.5
2022-12-20T03:18:18.325Z,1006.5
2022-12-20T03:19:21.378Z,1006.5
2022-12-20T03:20:24.755Z,1006.5
2022-12-20T03:21:28.157Z,1006.5
2022-12-20T03:22:30.689Z,1006.5
2022-12-20T03:23:33.726Z,1006.5
2022-12-20T03:24:36.558Z,1006.6
2022-12-20T03:25:39.594Z,1006.6
2022-12-20T03:26:42.770Z,1006.6
2022-12-20T03:27:46.241Z,1006.5
2022-12-20T03:28:48.708Z,1006.5
2022-12-20T03:29:51.455Z,1006.5
2022-12-20T03:30:54.694Z,1006.5
2022-12-20T03:31:58.336Z,1006.6
2022-12-20T03:33:01.693Z,1006.6
2022-12-20T03:34:05.159Z,1006.6
2022-12-20T03:35:08.638Z,1006.6
2022-12-20T03:36:11.844Z,1006.7
2022-12-20T03:37:15.414Z,1006.7
2022-12-20T03:38:18.528Z,1006.7
2022-12-20T03:39:21.535Z,1006.7
2022-12-20T03:40:24.929Z,1006.7
2022-12-20T03:41:27.728Z,1006.7
2022-12-20T03:42:31.021Z,1006.6
2022-12-20T03:43:33.838Z,1006.6
2022-12-20T03:44:36.748Z,1006.6
2022-12-20T03:45:39.789Z,1006.6
2022-12-20T03:46:42.647Z,1006.6
2022-12-20T03:47:45.805Z,1006.6
2022-12-20T03:48:49.278Z,1006.6
2022-12-20T03:49:52.922Z,1006.7
2022-12-20T03:50:56.101Z,1006.6
2022-12-20T03:51:58.389Z,1006.7
2022-12-20T03:53:02.139Z,1006.7
2022-12-20T03:54:05.827Z,1006.6
2022-12-20T03:55:08.903Z,1006.7
2022-12-20T03:56:12.370Z,1006.7
2022-12-20T03:57:15.400Z,1006.7
2022-12-20T03:58:17.838Z,1006.6
2022-12-20T03:59:21.570Z,1006.7
2022-12-20T04:00:24.580Z,1006.7
2022-12-20T04:01:28.014Z,1006.6
2022-12-20T04:02:32.152Z,1006.6
2022-12-20T04:03:36.171Z,1006.6
2022-12-20T04:04:40.442Z,1006.6
2022-12-20T04:05:43.850Z,1006.7
2022-12-20T04:06:46.401Z,1006.6
2022-12-20T04:07:49.664Z,1006.7
2022-12-20T04:08:52.805Z,1006.6
2022-12-20T04:09:55.265Z,1006.6
2022-12-20T04:10:57.988Z,1006.6
2022-12-20T04:12:00.818Z,1006.6
2022-12-20T04:13:04.549Z,1006.6
2022-12-20T04:14:07.605Z,1006.6
2022-12-20T04:15:11.000Z,1006.5
2022-12-20T04:16:14.592Z,1006.6
2022-12-20T04:17:18.079Z,1006.6
2022-12-20T04:18:21.154Z,1006.5
2022-12-20T04:19:23.904Z,1006.5
2022-12-20T04:20:27.693Z,1006.6
2022-12-20T04:21:30.852Z,1006.6
2022-12-20T04:22:34.181Z,1006.6
2022-12-20T04:23:37.823Z,1006.5
2022-12-20T04:24:41.869Z,1006.5
2022-12-20T04:25:45.590Z,1006.4
2022-12-20T04:26:48.350Z,1006.4
2022-12-20T04:27:51.432Z,1006.4
2022-12-20T04:28:54.279Z,1006.3
2022-12-20T04:29:57.465Z,1006.3
2022-12-20T04:31:00.121Z,1006.3
2022-12-20T04:32:03.507Z,1006.2
2022-12-20T04:33:07.004Z,1006.2
2022-12-20T04:34:10.416Z,1006.2
2022-12-20T04:35:12.912Z,1006.2
2022-12-20T04:36:16.372Z,1006.2
2022-12-20T04:37:19.255Z,1006.3
2022-12-20T04:38:22.053Z,1006.3
2022-12-20T04:39:25.037Z,1006.2
2022-12-20T04:40:28.269Z,1006.2
2022-12-20T04:41:30.732Z,1006.2
2022-12-20T04:42:33.833Z,1006.3
2022-12-20T04:43:36.769Z,1006.3
2022-12-20T04:44:40.160Z,1006.4
2022-12-20T04:45:43.517Z,1006.4
2022-12-20T04:46:46.716Z,1006.4
2022-12-20T04:47:50.561Z,1006.4
2022-12-20T04:49:00.026Z,1006.5
2022-12-20T04:50:03.656Z,1006.4
2022-12-20T04:51:06.401Z,1006.4
2022-12-20T04:52:09.804Z,1006.4
2022-12-20T04:53:13.159Z,1006.4
2022-12-20T04:54:16.573Z,1006.5
2022-12-20T04:55:19.379Z,1006.4
2022-12-20T04:56:22.304Z,1006.3
2022-12-20T04:57:25.381Z,1006.3
2022-12-20T04:58:27.583Z,1006.3
2022-12-20T04:59:30.662Z,1006.4
2022-12-20T05:00:33.119Z,1006.3
2022-12-20T05:01:36.523Z,1006.2
2022-12-20T05:02:41.351Z,1006.2
2022-12-20T05:03:45.756Z,1006.2
2022-12-20T05:04:49.098Z,1006.1
2022-12-20T05:05:52.535Z,1006.1
2022-12-20T05:06:55.745Z,1006.2
2022-12-20T05:07:59.256Z,1006.2
2022-12-20T05:09:02.371Z,1006.1
2022-12-20T05:10:05.462Z,1006.1
2022-12-20T05:11:08.829Z,1006.1
2022-12-20T05:12:12.541Z,1006.1
2022-12-20T05:13:14.978Z,1006.1
2022-12-20T05:14:18.081Z,1006.1
2022-12-20T05:15:21.718Z,1006
2022-12-20T05:16:26.720Z,1006
2022-12-20T05:17:29.913Z,1006
2022-12-20T05:18:33.721Z,1006
2022-12-20T05:19:37.089Z,1006
2022-12-20T05:20:40.157Z,1006
2022-12-20T05:21:43.165Z,1006.1
2022-12-20T05:22:46.174Z,1006.1
2022-12-20T05:23:49.350Z,1006.1
2022-12-20T05:24:52.436Z,1006.1
2022-12-20T05:25:55.509Z,1006.1
2022-12-20T05:26:59.193Z,1006.1
2022-12-20T05:28:03.298Z,1006.1
2022-12-20T05:29:06.444Z,1006.1
2022-12-20T05:30:09.303Z,1006.1
2022-12-20T05:31:12.147Z,1006.1
2022-12-20T05:32:15.260Z,1006.2
2022-12-20T05:33:18.439Z,1006.3
2022-12-20T05:34:21.443Z,1006.3
2022-12-20T05:35:24.247Z,1006.2
2022-12-20T05:36:27.868Z,1006.2
2022-12-20T05:37:30.879Z,1006.2
2022-12-20T05:38:33.602Z,1006.2
2022-12-20T05:39:36.971Z,1006.1
2022-12-20T05:40:39.784Z,1006.1
2022-12-20T05:41:42.599Z,1006.2
2022-12-20T05:42:46.319Z,1006.2
2022-12-20T05:43:49.731Z,1006.2
2022-12-20T05:44:52.613Z,1006.2
2022-12-20T05:45:54.515Z,1006.2
2022-12-20T05:46:58.423Z,1006.2
2022-12-20T05:48:01.613Z,1006.1
2022-12-20T05:49:05.060Z,1006.2
2022-12-20T05:50:18.433Z,1006.2
2022-12-20T05:51:22.155Z,1006.2
2022-12-20T05:52:25.159Z,1006.2
2022-12-20T05:53:28.218Z,1006.2
2022-12-20T05:54:31.653Z,1006.2
2022-12-20T05:55:34.885Z,1006.2
2022-12-20T05:56:38.546Z,1006.2
2022-12-20T05:57:42.135Z,1006.2
2022-12-20T05:58:45.198Z,1006.2
2022-12-20T05:59:48.953Z,1006.1
2022-12-20T06:00:52.059Z,1006.2
2022-12-20T06:01:56.590Z,1006.1
2022-12-20T06:03:00.894Z,1006.2
2022-12-20T06:04:04.737Z,1006.1
2022-12-20T06:05:08.237Z,1006.1
2022-12-20T06:06:15.571Z,1006.1
2022-12-20T06:07:18.776Z,1006.2
2022-12-20T06:08:22.015Z,1006.1
2022-12-20T06:09:25.452Z,1006.2
2022-12-20T06:10:27.970Z,1006.2
2022-12-20T06:11:31.470Z,1006.2
2022-12-20T06:12:35.030Z,1006.1
2022-12-20T06:13:38.145Z,1006.2
2022-12-20T06:14:40.891Z,1006.2
2022-12-20T06:15:44.670Z,1006.1
2022-12-20T06:16:48.217Z,1006.1
2022-12-20T06:17:51.293Z,1006.1
2022-12-20T06:18:54.008Z,1006.1
2022-12-20T06:19:56.829Z,1006.2
2022-12-20T06:21:00.493Z,1006.2
2022-12-20T06:22:04.149Z,1006.2
2022-12-20T06:23:07.011Z,1006.2
2022-12-20T06:24:10.051Z,1006.2
2022-12-20T06:25:13.596Z,1006.2
2022-12-20T06:26:16.335Z,1006.2
2022-12-20T06:27:19.870Z,1006.2
2022-12-20T06:28:23.376Z,1006.1
2022-12-20T06:29:26.667Z,1006.2
2022-12-20T06:30:34.604Z,1006.2
2022-12-20T06:31:38.132Z,1006.2
2022-12-20T06:32:41.579Z,1006.2
2022-12-20T06:33:44.676Z,1006.1
2022-12-20T06:34:48.077Z,1006.2
2022-12-20T06:35:50.859Z,1006.2
2022-12-20T06:36:54.165Z,1006.2
2022-12-20T06:37:56.394Z,1006.2
2022-12-20T06:39:09.572Z,1006.2
2022-12-20T06:40:13.678Z,1006.2
2022-12-20T06:41:16.692Z,1006.2
2022-12-20T06:42:19.849Z,1006.1
2022-12-20T06:43:22.939Z,1006.2
2022-12-20T06:44:25.801Z,1006.2
2022-12-20T06:45:28.401Z,1006.1
2022-12-20T06:46:38.078Z,1006.2
2022-12-20T06:47:42.126Z,1006.2
2022-12-20T06:48:45.534Z,1006.2
2022-12-20T06:49:48.340Z,1006.2
2022-12-20T06:50:56.569Z,1006.4
2022-12-20T06:51:59.621Z,1006.2
2022-12-20T06:53:02.253Z,1006.2
2022-12-20T06:54:05.279Z,1006.2
2022-12-20T06:55:08.512Z,1006.2
2022-12-20T06:56:11.543Z,1006.3
2022-12-20T06:57:15.088Z,1006.2
2022-12-20T06:58:18.462Z,1006.3
2022-12-20T06:59:22.063Z,1006.2
2022-12-20T07:00:27.747Z,1006.2
2022-12-20T07:01:31.363Z,1006.3
2022-12-20T07:02:35.808Z,1006.3
2022-12-20T07:03:40.487Z,1006.3
2022-12-20T07:04:43.866Z,1006.3
2022-12-20T07:05:46.862Z,1006.3
2022-12-20T07:06:49.399Z,1006.3
2022-12-20T07:07:53.113Z,1006.2
2022-12-20T07:08:55.908Z,1006.3
2022-12-20T07:09:59.324Z,1006.3
2022-12-20T07:11:02.055Z,1006.2
2022-12-20T07:12:05.803Z,1006.3
2022-12-20T07:13:09.557Z,1006.3
2022-12-20T07:14:12.352Z,1006.2
2022-12-20T07:15:15.574Z,1006.3
2022-12-20T07:16:19.681Z,1006.2
2022-12-20T07:17:22.628Z,1006.2
2022-12-20T07:18:27.920Z,1006.2
2022-12-20T07:19:31.541Z,1006.2
2022-12-20T07:20:34.993Z,1006.3
2022-12-20T07:21:38.104Z,1006.3
2022-12-20T07:22:41.282Z,1006.3
2022-12-20T07:23:45.643Z,1006.3
2022-12-20T07:24:49.073Z,1006.3
2022-12-20T07:25:52.135Z,1006.3
2022-12-20T07:26:55.381Z,1006.3
2022-12-20T07:27:58.365Z,1006.3
2022-12-20T07:29:01.446Z,1006.3
2022-12-20T07:30:05.135Z,1006.2
2022-12-20T07:31:08.332Z,1006.2
2022-12-20T07:32:11.781Z,1006.2
2022-12-20T07:33:14.914Z,1006.2
2022-12-20T07:34:17.731Z,1006.2
2022-12-20T07:35:21.431Z,1006.2
2022-12-20T07:36:25.293Z,1006.2
2022-12-20T07:37:28.952Z,1006.2
2022-12-20T07:38:32.729Z,1006.2
2022-12-20T07:39:35.645Z,1006.1
2022-12-20T07:40:39.418Z,1006.2
2022-12-20T07:41:42.321Z,1006.2
2022-12-20T07:42:49.535Z,1006.2
2022-12-20T07:43:53.019Z,1006.1
2022-12-20T07:44:56.442Z,1006.1
2022-12-20T07:46:00.978Z,1006.1
2022-12-20T07:47:04.977Z,1006.2
2022-12-20T07:48:16.078Z,1006.1
2022-12-20T07:49:25.029Z,1006.1
2022-12-20T07:50:28.819Z,1006.1
2022-12-20T07:51:32.589Z,1006
2022-12-20T07:52:36.662Z,1006
2022-12-20T07:53:39.427Z,1006
2022-12-20T07:54:41.897Z,1006
2022-12-20T07:55:45.579Z,1006
2022-12-20T07:56:49.070Z,1006
2022-12-20T07:57:52.369Z,1006
2022-12-20T07:58:55.316Z,1006
2022-12-20T07:59:58.535Z,1006.1
2022-12-20T08:01:02.468Z,1006.2
2022-12-20T08:02:06.663Z,1006.1
2022-12-20T08:03:11.974Z,1006.1
2022-12-20T08:04:16.067Z,1006
2022-12-20T08:05:19.366Z,1006.1
2022-12-20T08:06:22.767Z,1006
2022-12-20T08:07:27.248Z,1006
2022-12-20T08:08:31.314Z,1006
2022-12-20T08:09:35.041Z,1006.1
2022-12-20T08:10:38.163Z,1006.1
2022-12-20T08:11:41.880Z,1006
2022-12-20T08:12:45.759Z,1006.1
2022-12-20T08:13:57.948Z,1006.1
2022-12-20T08:15:01.467Z,1006.1
2022-12-20T08:16:04.900Z,1006
2022-12-20T08:17:08.788Z,1006
2022-12-20T08:18:12.288Z,1006
2022-12-20T08:19:16.164Z,1005.9
2022-12-20T08:20:19.957Z,1005.9
2022-12-20T08:21:23.140Z,1005.9
2022-12-20T08:22:26.056Z,1006
2022-12-20T08:23:29.733Z,1005.9
2022-12-20T08:24:33.232Z,1005.9
2022-12-20T08:25:42.428Z,1006
2022-12-20T08:26:45.787Z,1005.9
2022-12-20T08:27:48.871Z,1006
2022-12-20T08:28:51.975Z,1006
2022-12-20T08:29:54.988Z,1006
2022-12-20T08:30:57.840Z,1005.9
2022-12-20T08:32:01.248Z,1005.9
2022-12-20T08:33:04.708Z,1005.9
2022-12-20T08:34:08.500Z,1005.9
2022-12-20T08:35:12.331Z,1005.9
2022-12-20T08:36:15.899Z,1005.9
2022-12-20T08:37:18.920Z,1006
2022-12-20T08:38:22.704Z,1006
2022-12-20T08:39:25.470Z,1006
2022-12-20T08:40:28.186Z,1005.9
2022-12-20T08:41:32.003Z,1005.9
2022-12-20T08:42:35.032Z,1006
2022-12-20T08:43:39.892Z,1006
2022-12-20T08:44:44.134Z,1006
2022-12-20T08:45:47.690Z,1006
2022-12-20T08:46:50.685Z,1006
2022-12-20T08:47:54.052Z,1006
2022-12-20T08:48:57.431Z,1005.9
2022-12-20T08:50:01.526Z,1005.9
2022-12-20T08:51:05.625Z,1005.9
2022-12-20T08:52:09.505Z,1005.9
2022-12-20T08:53:12.889Z,1006
2022-12-20T08:54:16.034Z,1006
2022-12-20T08:55:27.604Z,1005.9
2022-12-20T08:56:32.558Z,1005.9
2022-12-20T08:57:36.064Z,1005.9
2022-12-20T08:58:39.765Z,1005.9
2022-12-20T08:59:42.570Z,1005.9
2022-12-20T09:00:45.572Z,1005.8
2022-12-20T09:01:48.990Z,1005.9
2022-12-20T09:02:53.150Z,1005.9
2022-12-20T09:03:58.121Z,1006
2022-12-20T09:05:02.030Z,1006
2022-12-20T09:06:05.420Z,1006
2022-12-20T09:07:09.291Z,1006
2022-12-20T09:08:12.656Z,1005.9
2022-12-20T09:09:15.468Z,1005.9
2022-12-20T09:10:19.048Z,1005.9
2022-12-20T09:11:22.711Z,1005.9
2022-12-20T09:12:25.839Z,1005.9
2022-12-20T09:13:29.670Z,1005.9
2022-12-20T09:14:33.062Z,1005.8
2022-12-20T09:15:36.828Z,1005.8
2022-12-20T09:16:40.464Z,1005.8
2022-12-20T09:17:43.626Z,1005.8
2022-12-20T09:18:46.497Z,1005.8
2022-12-20T09:19:49.942Z,1005.9
2022-12-20T09:20:53.068Z,1005.9
2022-12-20T09:21:56.366Z,1005.8
2022-12-20T09:22:59.880Z,1005.8
2022-12-20T09:24:03.114Z,1005.8
2022-12-20T09:25:06.219Z,1005.9
2022-12-20T09:26:09.388Z,1005.8
2022-12-20T09:27:12.210Z,1005.8
2022-12-20T09:28:15.004Z,1005.8
2022-12-20T09:29:32.132Z,1005.9
2022-12-20T09:30:39.560Z,1005.8
2022-12-20T09:31:44.489Z,1005.8
2022-12-20T09:32:48.191Z,1005.9
2022-12-20T09:33:50.636Z,1005.9
2022-12-20T09:34:54.296Z,1005.8
2022-12-20T09:35:56.900Z,1005.8
2022-12-20T09:37:00.003Z,1005.7
2022-12-20T09:38:03.852Z,1005.8
2022-12-20T09:39:06.984Z,1005.8
2022-12-20T09:40:10.643Z,1005.8
2022-12-20T09:41:22.707Z,1005.8
2022-12-20T09:42:26.505Z,1005.8
2022-12-20T09:43:30.031Z,1005.8
2022-12-20T09:44:33.141Z,1005.8
2022-12-20T09:45:36.115Z,1005.8
2022-12-20T09:46:39.645Z,1005.7
2022-12-20T09:47:43.404Z,1005.7
2022-12-20T09:48:46.769Z,1005.7
2022-12-20T09:49:50.141Z,1005.7
2022-12-20T09:50:52.702Z,1005.7
2022-12-20T09:51:56.453Z,1005.6
2022-12-20T09:52:59.174Z,1005.6
2022-12-20T09:54:02.619Z,1005.5
2022-12-20T09:55:05.936Z,1005.6
2022-12-20T09:56:09.411Z,1005.5
2022-12-20T09:57:13.092Z,1005.5
2022-12-20T09:58:16.199Z,1005.6
2022-12-20T09:59:19.672Z,1005.6
2022-12-20T10:00:23.139Z,1005.5
2022-12-20T10:01:38.523Z,1005.4
2022-12-20T10:03:11.026Z,1005.6
2022-12-20T10:04:16.790Z,1005.5
2022-12-20T10:05:22.466Z,1005.5
2022-12-20T10:06:26.802Z,1005.5
2022-12-20T10:07:30.305Z,1005.5
2022-12-20T10:08:33.583Z,1005.5
2022-12-20T10:09:37.359Z,1005.5
2022-12-20T10:10:40.106Z,1005.6
2022-12-20T10:11:51.152Z,1005.5
2022-12-20T10:12:54.952Z,1005.5
2022-12-20T10:13:58.667Z,1005.5
2022-12-20T10:15:02.693Z,1005.4
2022-12-20T10:16:05.322Z,1005.5
2022-12-20T10:17:08.974Z,1005.4
2022-12-20T10:18:12.457Z,1005.5
2022-12-20T10:19:15.547Z,1005.4
2022-12-20T10:20:18.946Z,1005.4
2022-12-20T10:21:21.811Z,1005.4
2022-12-20T10:22:24.901Z,1005.4
2022-12-20T10:23:33.933Z,1005.4
2022-12-20T10:24:36.485Z,1005.4
2022-12-20T10:25:40.258Z,1005.4
2022-12-20T10:26:42.439Z,1005.3
2022-12-20T10:27:45.590Z,1005.3
2022-12-20T10:28:54.838Z,1005.3
2022-12-20T10:29:58.292Z,1005.3
2022-12-20T10:31:01.862Z,1005.3
2022-12-20T10:32:04.947Z,1005.2
2022-12-20T10:33:08.941Z,1005.2
2022-12-20T10:34:11.376Z,1005.2
2022-12-20T10:35:14.759Z,1005.2
2022-12-20T10:36:18.140Z,1005.2
2022-12-20T10:37:21.526Z,1005.1
2022-12-20T10:38:24.279Z,1005.2
2022-12-20T10:39:27.482Z,1005.1
2022-12-20T10:41:20.450Z,1005.1
2022-12-20T10:42:26.769Z,1005.1
2022-12-20T10:43:30.808Z,1005
2022-12-20T10:44:34.301Z,1005.1
2022-12-20T10:45:37.402Z,1005
2022-12-20T10:46:41.023Z,1005.1
2022-12-20T10:47:45.272Z,1005
2022-12-20T10:48:48.414Z,1005
2022-12-20T10:49:51.109Z,1005
2022-12-20T10:50:54.229Z,1005
2022-12-20T10:51:58.507Z,1005
2022-12-20T10:53:01.978Z,1005
2022-12-20T10:54:06.108Z,1004.9
2022-12-20T10:55:09.186Z,1004.9
2022-12-20T10:56:12.180Z,1004.9
2022-12-20T10:57:15.817Z,1004.9
2022-12-20T10:58:19.927Z,1004.8
2022-12-20T10:59:23.442Z,1004.8
2022-12-20T11:00:27.212Z,1004.8
2022-12-20T11:01:30.598Z,1004.8
2022-12-20T11:02:42.851Z,1004.8
2022-12-20T11:03:49.079Z,1004.7
2022-12-20T11:04:53.194Z,1004.7
2022-12-20T11:05:56.394Z,1004.7
2022-12-20T11:06:59.786Z,1004.8
2022-12-20T11:08:38.033Z,1004.7
2022-12-20T11:10:03.521Z,1004.7
2022-12-20T11:11:06.834Z,1004.7
2022-12-20T11:12:09.897Z,1004.7
2022-12-20T11:13:13.545Z,1004.7
2022-12-20T11:14:17.707Z,1004.7
2022-12-20T11:15:34.565Z,1004.6
2022-12-20T11:16:40.285Z,1004.6
2022-12-20T11:17:44.325Z,1004.5
2022-12-20T11:18:47.632Z,1004.5
2022-12-20T11:19:51.071Z,1004.5
2022-12-20T11:20:54.073Z,1004.5
2022-12-20T11:21:57.077Z,1004.4
2022-12-20T11:23:00.587Z,1004.4
2022-12-20T11:24:04.398Z,1004.5
2022-12-20T11:25:07.509Z,1004.5
2022-12-20T11:26:11.208Z,1004.5
2022-12-20T11:27:16.429Z,1004.5
2022-12-20T11:28:20.525Z,1004.5
2022-12-20T11:29:24.290Z,1004.5
2022-12-20T11:30:27.183Z,1004.5
2022-12-20T11:31:31.033Z,1004.5
2022-12-20T11:32:34.727Z,1004.6
2022-12-20T11:33:37.984Z,1004.5
2022-12-20T11:34:41.088Z,1004.5
2022-12-20T11:35:44.745Z,1004.5
2022-12-20T11:36:46.921Z,1004.4
2022-12-20T11:37:50.131Z,1004.4
2022-12-20T11:38:53.725Z,1004.4
2022-12-20T11:39:56.856Z,1004.3
2022-12-20T11:41:00.572Z,1004.3
2022-12-20T11:42:04.652Z,1004.3
2022-12-20T11:43:07.739Z,1004.3
2022-12-20T11:44:28.018Z,1004.1
2022-12-20T11:45:31.768Z,1004.2
2022-12-20T11:46:35.153Z,1004.1
2022-12-20T11:47:39.149Z,1004.1
2022-12-20T11:48:42.617Z,1004.2
2022-12-20T11:49:45.616Z,1004.1
2022-12-20T11:50:49.138Z,1004.1
2022-12-20T11:51:52.538Z,1004.1
2022-12-20T11:52:55.637Z,1004.1
2022-12-20T11:53:59.005Z,1004.2
2022-12-20T11:55:02.353Z,1004.1
2022-12-20T11:56:05.634Z,1004.2
2022-12-20T11:57:08.391Z,1004.1
2022-12-20T11:58:20.992Z,1004.2
2022-12-20T11:59:24.480Z,1004.1
2022-12-20T12:00:28.255Z,1004.1
2022-12-20T12:01:31.808Z,1004.1
2022-12-20T12:02:36.093Z,1004.1
2022-12-20T12:03:40.944Z,1004.1
2022-12-20T12:04:44.430Z,1004
2022-12-20T12:05:47.915Z,1004
2022-12-20T12:06:50.927Z,1004
2022-12-20T12:07:54.769Z,1004
2022-12-20T12:08:58.598Z,1003.9
2022-12-20T12:10:02.276Z,1003.9
2022-12-20T12:11:05.403Z,1003.9
2022-12-20T12:12:10.267Z,1003.9
2022-12-20T12:13:13.763Z,1003.9
2022-12-20T12:14:17.142Z,1004
2022-12-20T12:15:20.526Z,1004
2022-12-20T12:16:24.240Z,1003.9
2022-12-20T12:17:28.609Z,1003.9
2022-12-20T12:18:31.775Z,1003.9
2022-12-20T12:19:35.258Z,1003.9
2022-12-20T12:20:38.945Z,1003.8
2022-12-20T12:21:41.819Z,1003.8
2022-12-20T12:22:44.573Z,1003.8
2022-12-20T12:23:47.620Z,1003.8
2022-12-20T12:24:50.979Z,1003.8
2022-12-20T12:25:54.795Z,1003.8
2022-12-20T12:26:58.607Z,1003.8
2022-12-20T12:28:02.396Z,1003.9
2022-12-20T12:29:06.108Z,1003.8
2022-12-20T12:30:08.989Z,1003.9
2022-12-20T12:31:12.093Z,1003.9
2022-12-20T12:32:15.750Z,1003.8
2022-12-20T12:33:26.057Z,1003.9
2022-12-20T12:34:40.945Z,1003.9
2022-12-20T12:35:44.477Z,1003.9
2022-12-20T12:36:48.178Z,1003.8
2022-12-20T12:37:51.875Z,1003.8
2022-12-20T12:39:02.772Z,1003.8
2022-12-20T12:40:07.045Z,1003.9
2022-12-20T12:41:10.355Z,1003.8
2022-12-20T12:42:13.770Z,1003.8
2022-12-20T12:43:17.428Z,1003.7
2022-12-20T12:44:21.191Z,1003.8
2022-12-20T12:45:24.019Z,1003.7
2022-12-20T12:46:27.691Z,1003.8
2022-12-20T12:47:31.761Z,1003.7
2022-12-20T12:48:35.505Z,1003.7
2022-12-20T12:49:38.911Z,1003.7
2022-12-20T12:50:42.737Z,1003.6
2022-12-20T12:51:46.047Z,1003.7
2022-12-20T12:52:49.452Z,1003.6
2022-12-20T12:53:52.906Z,1003.7
2022-12-20T12:54:55.918Z,1003.7
2022-12-20T12:56:43.612Z,1003.7
2022-12-20T12:57:50.582Z,1003.8
2022-12-20T12:58:54.270Z,1003.7
2022-12-20T12:59:58.059Z,1003.7
2022-12-20T13:01:01.681Z,1003.8
2022-12-20T13:02:05.457Z,1003.8
2022-12-20T13:03:10.284Z,1003.8
2022-12-20T13:04:14.855Z,1003.8
2022-12-20T13:05:26.585Z,1003.8
2022-12-20T13:06:30.149Z,1003.8
2022-12-20T13:07:33.258Z,1003.8
2022-12-20T13:08:36.934Z,1003.7
2022-12-20T13:09:40.612Z,1003.7
2022-12-20T13:10:44.358Z,1003.7
2022-12-20T13:11:57.496Z,1003.7
2022-12-20T13:13:14.807Z,1003.7
2022-12-20T13:14:17.582Z,1003.6
2022-12-20T13:15:20.764Z,1003.6
2022-12-20T13:17:11.912Z,1003.6
2022-12-20T13:18:29.345Z,1003.6
2022-12-20T13:19:33.251Z,1003.6
2022-12-20T13:20:37.011Z,1003.5
2022-12-20T13:21:40.774Z,1003.6
2022-12-20T13:22:44.143Z,1003.6
2022-12-20T13:23:47.519Z,1003.6
2022-12-20T13:24:51.221Z,1003.6
2022-12-20T13:25:54.529Z,1003.6
2022-12-20T13:26:57.551Z,1003.6